sensor_id;sensor_type;location;lat;lon;timestamp;pressure;altitude;pressure_sealevel;temperature;humidity
55490;BME280;44029;52.956;4.772;2023-08-06T00:01:42;100732.41;;;16.79;100.00
55490;BME280;44029;52.956;4.772;2023-08-06T00:04:07;100734.09;;;16.80;100.00
55490;BME280;44029;52.956;4.772;2023-08-06T00:06:33;100727.63;;;16.90;100.00
55490;BME280;44029;52.956;4.772;2023-08-06T00:08:58;100717.16;;;16.82;100.00
55490;BME280;44029;52.956;4.772;2023-08-06T00:11:23;100720.25;;;17.05;100.00
55490;BME280;44029;52.956;4.772;2023-08-06T00:13:49;100731.72;;;16.93;100.00
55490;BME280;44029;52.956;4.772;2023-08-06T00:16:14;100731.34;;;17.24;100.00
55490;BME280;44029;52.956;4.772;2023-08-06T00:18:39;100743.53;;;17.23;100.00
55490;BME280;44029;52.956;4.772;2023-08-06T00:21:05;100722.66;;;17.30;100.00
55490;BME280;44029;52.956;4.772;2023-08-06T00:23:31;100716.72;;;16.99;100.00
55490;BME280;44029;52.956;4.772;2023-08-06T00:25:56;100724.09;;;17.28;100.00
55490;BME280;44029;52.956;4.772;2023-08-06T00:28:21;100723.16;;;17.13;100.00
55490;BME280;44029;52.956;4.772;2023-08-06T00:30:55;100721.00;;;17.48;100.00
55490;BME280;44029;52.956;4.772;2023-08-06T00:33:22;100718.78;;;17.31;100.00
55490;BME280;44029;52.956;4.772;2023-08-06T00:35:47;100721.59;;;16.59;100.00
55490;BME280;44029;52.956;4.772;2023-08-06T00:38:12;100707.09;;;16.67;100.00
55490;BME280;44029;52.956;4.772;2023-08-06T00:40:38;100706.31;;;16.91;100.00
55490;BME280;44029;52.956;4.772;2023-08-06T00:43:03;100703.81;;;16.65;100.00
55490;BME280;44029;52.956;4.772;2023-08-06T00:45:29;100711.16;;;17.23;100.00
55490;BME280;44029;52.956;4.772;2023-08-06T00:47:55;100702.09;;;17.36;100.00
55490;BME280;44029;52.956;4.772;2023-08-06T00:50:21;100710.00;;;17.43;100.00
55490;BME280;44029;52.956;4.772;2023-08-06T00:52:49;100718.69;;;17.55;100.00
55490;BME280;44029;52.956;4.772;2023-08-06T00:55:15;100716.97;;;17.59;100.00
55490;BME280;44029;52.956;4.772;2023-08-06T00:57:41;100720.34;;;17.56;100.00
55490;BME280;44029;52.956;4.772;2023-08-06T01:00:07;100724.47;;;17.40;100.00
55490;BME280;44029;52.956;4.772;2023-08-06T01:02:33;100715.00;;;17.79;100.00
55490;BME280;44029;52.956;4.772;2023-08-06T01:04:58;100731.56;;;17.65;100.00
55490;BME280;44029;52.956;4.772;2023-08-06T01:13:00;100748.03;;;18.27;100.00
55490;BME280;44029;52.956;4.772;2023-08-06T01:15:32;100728.13;;;18.25;100.00
55490;BME280;44029;52.956;4.772;2023-08-06T01:18:00;100740.47;;;18.33;100.00
55490;BME280;44029;52.956;4.772;2023-08-06T01:20:29;100751.25;;;18.34;100.00
55490;BME280;44029;52.956;4.772;2023-08-06T01:22:55;100753.81;;;18.31;100.00
55490;BME280;44029;52.956;4.772;2023-08-06T01:25:26;100775.34;;;18.20;100.00
55490;BME280;44029;52.956;4.772;2023-08-06T01:27:57;100769.47;;;17.89;100.00
55490;BME280;44029;52.956;4.772;2023-08-06T01:30:29;100767.75;;;18.26;100.00
55490;BME280;44029;52.956;4.772;2023-08-06T01:33:03;100766.72;;;18.68;100.00
55490;BME280;44029;52.956;4.772;2023-08-06T01:35:30;100765.63;;;18.50;100.00
55490;BME280;44029;52.956;4.772;2023-08-06T01:37:55;100776.16;;;18.21;100.00
55490;BME280;44029;52.956;4.772;2023-08-06T01:40:21;100772.22;;;18.08;100.00
55490;BME280;44029;52.956;4.772;2023-08-06T01:42:46;100779.72;;;18.07;100.00
55490;BME280;44029;52.956;4.772;2023-08-06T01:45:12;100772.75;;;18.57;100.00
55490;BME280;44029;52.956;4.772;2023-08-06T01:47:37;100771.91;;;18.56;100.00
55490;BME280;44029;52.956;4.772;2023-08-06T01:50:03;100772.63;;;18.48;100.00
55490;BME280;44029;52.956;4.772;2023-08-06T01:52:28;100769.84;;;18.81;100.00
55490;BME280;44029;52.956;4.772;2023-08-06T01:54:54;100769.34;;;18.60;100.00
55490;BME280;44029;52.956;4.772;2023-08-06T01:57:20;100769.03;;;18.47;100.00
55490;BME280;44029;52.956;4.772;2023-08-06T01:59:45;100765.03;;;18.40;100.00
55490;BME280;44029;52.956;4.772;2023-08-06T02:02:11;100775.41;;;18.15;100.00
55490;BME280;44029;52.956;4.772;2023-08-06T02:04:37;100768.41;;;18.37;100.00
55490;BME280;44029;52.956;4.772;2023-08-06T02:07:02;100762.56;;;18.38;100.00
55490;BME280;44029;52.956;4.772;2023-08-06T02:09:27;100765.72;;;18.31;100.00
55490;BME280;44029;52.956;4.772;2023-08-06T02:11:53;100768.84;;;18.44;100.00
55490;BME280;44029;52.956;4.772;2023-08-06T02:14:18;100779.63;;;18.59;100.00
55490;BME280;44029;52.956;4.772;2023-08-06T02:16:43;100766.44;;;18.84;100.00
55490;BME280;44029;52.956;4.772;2023-08-06T02:19:09;100759.91;;;18.74;100.00
55490;BME280;44029;52.956;4.772;2023-08-06T02:21:34;100759.63;;;18.76;100.00
55490;BME280;44029;52.956;4.772;2023-08-06T02:24:00;100756.38;;;18.88;100.00
55490;BME280;44029;52.956;4.772;2023-08-06T02:26:26;100752.03;;;18.82;100.00
55490;BME280;44029;52.956;4.772;2023-08-06T02:28:51;100755.09;;;18.80;100.00
55490;BME280;44029;52.956;4.772;2023-08-06T02:31:16;100747.22;;;19.01;100.00
55490;BME280;44029;52.956;4.772;2023-08-06T02:33:42;100753.28;;;18.89;100.00
55490;BME280;44029;52.956;4.772;2023-08-06T02:36:07;100752.19;;;18.58;100.00
55490;BME280;44029;52.956;4.772;2023-08-06T02:38:33;100758.50;;;18.77;100.00
55490;BME280;44029;52.956;4.772;2023-08-06T02:40:58;100753.75;;;18.78;100.00
55490;BME280;44029;52.956;4.772;2023-08-06T02:43:24;100749.53;;;18.80;100.00
55490;BME280;44029;52.956;4.772;2023-08-06T02:45:49;100756.28;;;18.46;100.00
55490;BME280;44029;52.956;4.772;2023-08-06T02:48:15;100753.66;;;18.69;100.00
55490;BME280;44029;52.956;4.772;2023-08-06T02:50:41;100754.06;;;18.76;100.00
55490;BME280;44029;52.956;4.772;2023-08-06T02:53:07;100756.72;;;18.40;100.00
55490;BME280;44029;52.956;4.772;2023-08-06T02:55:34;100756.50;;;18.50;100.00
55490;BME280;44029;52.956;4.772;2023-08-06T02:58:00;100752.88;;;18.82;100.00
55490;BME280;44029;52.956;4.772;2023-08-06T03:00:26;100738.22;;;18.77;100.00
55490;BME280;44029;52.956;4.772;2023-08-06T03:02:51;100736.31;;;18.91;100.00
55490;BME280;44029;52.956;4.772;2023-08-06T03:05:16;100731.19;;;18.84;100.00
55490;BME280;44029;52.956;4.772;2023-08-06T03:07:42;100734.63;;;18.76;100.00
55490;BME280;44029;52.956;4.772;2023-08-06T03:10:07;100734.03;;;18.93;100.00
55490;BME280;44029;52.956;4.772;2023-08-06T03:12:33;100731.66;;;18.59;100.00
55490;BME280;44029;52.956;4.772;2023-08-06T03:14:58;100727.34;;;19.08;100.00
55490;BME280;44029;52.956;4.772;2023-08-06T03:17:23;100722.50;;;19.13;100.00
55490;BME280;44029;52.956;4.772;2023-08-06T03:19:49;100721.50;;;18.96;100.00
55490;BME280;44029;52.956;4.772;2023-08-06T03:22:14;100723.94;;;19.25;100.00
55490;BME280;44029;52.956;4.772;2023-08-06T03:24:40;100717.63;;;19.33;100.00
55490;BME280;44029;52.956;4.772;2023-08-06T03:27:05;100707.00;;;19.12;100.00
55490;BME280;44029;52.956;4.772;2023-08-06T03:29:30;100712.84;;;19.11;100.00
55490;BME280;44029;52.956;4.772;2023-08-06T03:31:56;100713.81;;;18.92;100.00
55490;BME280;44029;52.956;4.772;2023-08-06T03:34:21;100722.53;;;19.00;100.00
55490;BME280;44029;52.956;4.772;2023-08-06T03:36:47;100717.16;;;18.62;100.00
55490;BME280;44029;52.956;4.772;2023-08-06T03:39:12;100720.97;;;18.66;100.00
55490;BME280;44029;52.956;4.772;2023-08-06T03:41:39;100725.91;;;18.69;100.00
55490;BME280;44029;52.956;4.772;2023-08-06T03:44:04;100726.53;;;18.80;100.00
55490;BME280;44029;52.956;4.772;2023-08-06T03:46:30;100716.47;;;18.84;100.00
55490;BME280;44029;52.956;4.772;2023-08-06T03:48:59;100719.88;;;18.81;100.00
55490;BME280;44029;52.956;4.772;2023-08-06T03:51:24;100719.75;;;18.72;100.00
55490;BME280;44029;52.956;4.772;2023-08-06T03:53:49;100724.56;;;18.66;100.00
55490;BME280;44029;52.956;4.772;2023-08-06T03:56:15;100727.06;;;18.82;100.00
55490;BME280;44029;52.956;4.772;2023-08-06T03:58:40;100720.16;;;18.93;100.00
55490;BME280;44029;52.956;4.772;2023-08-06T04:01:05;100719.97;;;18.89;100.00
55490;BME280;44029;52.956;4.772;2023-08-06T04:03:31;100727.97;;;18.91;100.00
55490;BME280;44029;52.956;4.772;2023-08-06T04:05:56;100724.19;;;18.87;100.00
55490;BME280;44029;52.956;4.772;2023-08-06T04:08:21;100721.81;;;18.94;100.00
55490;BME280;44029;52.956;4.772;2023-08-06T04:10:52;100725.22;;;19.41;100.00
55490;BME280;44029;52.956;4.772;2023-08-06T04:13:18;100722.19;;;19.15;100.00
55490;BME280;44029;52.956;4.772;2023-08-06T04:15:43;100717.69;;;18.78;100.00
55490;BME280;44029;52.956;4.772;2023-08-06T04:18:09;100714.97;;;19.28;100.00
55490;BME280;44029;52.956;4.772;2023-08-06T04:20:34;100714.88;;;19.19;100.00
55490;BME280;44029;52.956;4.772;2023-08-06T04:23:06;100718.44;;;19.47;100.00
55490;BME280;44029;52.956;4.772;2023-08-06T04:25:31;100714.38;;;19.17;100.00
55490;BME280;44029;52.956;4.772;2023-08-06T04:27:57;100714.16;;;19.13;100.00
55490;BME280;44029;52.956;4.772;2023-08-06T04:30:22;100728.19;;;18.95;100.00
55490;BME280;44029;52.956;4.772;2023-08-06T04:32:49;100726.84;;;19.20;100.00
55490;BME280;44029;52.956;4.772;2023-08-06T04:35:14;100731.06;;;18.89;100.00
55490;BME280;44029;52.956;4.772;2023-08-06T04:37:40;100730.41;;;19.20;100.00
55490;BME280;44029;52.956;4.772;2023-08-06T04:40:06;100728.47;;;19.21;100.00
55490;BME280;44029;52.956;4.772;2023-08-06T04:42:31;100726.53;;;19.07;100.00
55490;BME280;44029;52.956;4.772;2023-08-06T04:44:56;100733.31;;;19.15;100.00
55490;BME280;44029;52.956;4.772;2023-08-06T04:47:22;100731.56;;;19.05;100.00
55490;BME280;44029;52.956;4.772;2023-08-06T04:49:47;100724.28;;;19.46;100.00
55490;BME280;44029;52.956;4.772;2023-08-06T04:52:12;100727.13;;;19.18;100.00
55490;BME280;44029;52.956;4.772;2023-08-06T04:54:38;100728.25;;;19.31;100.00
55490;BME280;44029;52.956;4.772;2023-08-06T04:57:03;100730.81;;;19.27;100.00
55490;BME280;44029;52.956;4.772;2023-08-06T04:59:29;100732.44;;;19.28;100.00
55490;BME280;44029;52.956;4.772;2023-08-06T05:01:54;100723.59;;;19.40;100.00
55490;BME280;44029;52.956;4.772;2023-08-06T05:04:20;100723.31;;;19.28;100.00
55490;BME280;44029;52.956;4.772;2023-08-06T05:06:45;100733.81;;;19.17;100.00
55490;BME280;44029;52.956;4.772;2023-08-06T05:09:10;100735.28;;;19.15;100.00
55490;BME280;44029;52.956;4.772;2023-08-06T05:11:36;100728.41;;;19.12;100.00
55490;BME280;44029;52.956;4.772;2023-08-06T05:14:01;100745.66;;;18.95;100.00
55490;BME280;44029;52.956;4.772;2023-08-06T05:16:26;100740.22;;;19.04;100.00
55490;BME280;44029;52.956;4.772;2023-08-06T05:18:52;100738.56;;;19.17;100.00
55490;BME280;44029;52.956;4.772;2023-08-06T05:21:17;100737.59;;;19.35;100.00
55490;BME280;44029;52.956;4.772;2023-08-06T05:23:43;100734.75;;;19.12;100.00
55490;BME280;44029;52.956;4.772;2023-08-06T05:26:08;100734.97;;;19.16;100.00
55490;BME280;44029;52.956;4.772;2023-08-06T05:28:34;100739.97;;;19.28;100.00
55490;BME280;44029;52.956;4.772;2023-08-06T05:31:03;100739.72;;;19.52;100.00
55490;BME280;44029;52.956;4.772;2023-08-06T05:33:29;100744.16;;;19.39;100.00
55490;BME280;44029;52.956;4.772;2023-08-06T05:35:54;100750.78;;;19.29;100.00
55490;BME280;44029;52.956;4.772;2023-08-06T05:38:19;100751.78;;;19.47;100.00
55490;BME280;44029;52.956;4.772;2023-08-06T05:40:45;100759.41;;;19.28;100.00
55490;BME280;44029;52.956;4.772;2023-08-06T05:43:10;100749.13;;;19.65;100.00
55490;BME280;44029;52.956;4.772;2023-08-06T05:45:35;100754.56;;;19.47;100.00
55490;BME280;44029;52.956;4.772;2023-08-06T05:48:01;100755.22;;;19.17;100.00
55490;BME280;44029;52.956;4.772;2023-08-06T05:50:26;100762.84;;;19.61;100.00
55490;BME280;44029;52.956;4.772;2023-08-06T05:52:51;100752.94;;;19.69;100.00
55490;BME280;44029;52.956;4.772;2023-08-06T05:55:17;100747.63;;;19.59;100.00
55490;BME280;44029;52.956;4.772;2023-08-06T05:57:42;100753.38;;;19.62;100.00
55490;BME280;44029;52.956;4.772;2023-08-06T06:00:08;100758.47;;;19.69;100.00
55490;BME280;44029;52.956;4.772;2023-08-06T06:02:34;100759.34;;;19.56;100.00
55490;BME280;44029;52.956;4.772;2023-08-06T06:04:59;100764.91;;;19.56;100.00
55490;BME280;44029;52.956;4.772;2023-08-06T06:07:24;100761.72;;;19.48;100.00
55490;BME280;44029;52.956;4.772;2023-08-06T06:09:49;100761.19;;;19.74;100.00
55490;BME280;44029;52.956;4.772;2023-08-06T06:12:15;100771.16;;;19.61;100.00
55490;BME280;44029;52.956;4.772;2023-08-06T06:14:40;100762.63;;;19.58;100.00
55490;BME280;44029;52.956;4.772;2023-08-06T06:17:06;100771.72;;;19.49;100.00
55490;BME280;44029;52.956;4.772;2023-08-06T06:19:31;100761.91;;;19.66;100.00
55490;BME280;44029;52.956;4.772;2023-08-06T06:21:56;100765.56;;;19.39;100.00
55490;BME280;44029;52.956;4.772;2023-08-06T06:24:23;100769.28;;;19.70;100.00
55490;BME280;44029;52.956;4.772;2023-08-06T06:26:48;100774.19;;;19.87;100.00
55490;BME280;44029;52.956;4.772;2023-08-06T06:29:13;100766.13;;;20.00;100.00
55490;BME280;44029;52.956;4.772;2023-08-06T06:31:39;100770.81;;;19.91;100.00
55490;BME280;44029;52.956;4.772;2023-08-06T06:34:04;100784.78;;;19.99;100.00
55490;BME280;44029;52.956;4.772;2023-08-06T06:36:29;100782.19;;;20.03;100.00
55490;BME280;44029;52.956;4.772;2023-08-06T06:38:55;100781.63;;;20.15;100.00
55490;BME280;44029;52.956;4.772;2023-08-06T06:41:20;100780.84;;;19.64;100.00
55490;BME280;44029;52.956;4.772;2023-08-06T06:43:45;100777.94;;;20.05;100.00
55490;BME280;44029;52.956;4.772;2023-08-06T06:46:11;100781.81;;;19.96;100.00
55490;BME280;44029;52.956;4.772;2023-08-06T06:48:36;100789.38;;;20.26;100.00
55490;BME280;44029;52.956;4.772;2023-08-06T06:51:01;100779.97;;;20.36;100.00
55490;BME280;44029;52.956;4.772;2023-08-06T06:53:28;100791.59;;;19.93;100.00
55490;BME280;44029;52.956;4.772;2023-08-06T06:55:54;100793.56;;;20.15;100.00
55490;BME280;44029;52.956;4.772;2023-08-06T06:58:20;100787.94;;;20.06;100.00
55490;BME280;44029;52.956;4.772;2023-08-06T07:00:46;100788.56;;;20.03;100.00
55490;BME280;44029;52.956;4.772;2023-08-06T07:03:12;100791.94;;;20.14;100.00
55490;BME280;44029;52.956;4.772;2023-08-06T07:05:37;100790.72;;;20.06;100.00
55490;BME280;44029;52.956;4.772;2023-08-06T07:08:03;100794.50;;;19.88;100.00
55490;BME280;44029;52.956;4.772;2023-08-06T07:10:28;100804.09;;;19.82;100.00
55490;BME280;44029;52.956;4.772;2023-08-06T07:12:54;100802.16;;;20.05;100.00
55490;BME280;44029;52.956;4.772;2023-08-06T07:15:19;100801.34;;;20.04;100.00
55490;BME280;44029;52.956;4.772;2023-08-06T07:17:45;100800.06;;;20.11;100.00
55490;BME280;44029;52.956;4.772;2023-08-06T07:20:10;100802.09;;;19.96;100.00
55490;BME280;44029;52.956;4.772;2023-08-06T07:22:36;100804.38;;;19.80;100.00
55490;BME280;44029;52.956;4.772;2023-08-06T07:25:02;100806.84;;;19.96;100.00
55490;BME280;44029;52.956;4.772;2023-08-06T07:27:27;100805.69;;;19.60;100.00
55490;BME280;44029;52.956;4.772;2023-08-06T07:29:52;100816.53;;;19.70;100.00
55490;BME280;44029;52.956;4.772;2023-08-06T07:32:18;100807.00;;;19.77;100.00
55490;BME280;44029;52.956;4.772;2023-08-06T07:34:43;100819.75;;;19.78;100.00
55490;BME280;44029;52.956;4.772;2023-08-06T07:37:09;100804.88;;;20.19;100.00
55490;BME280;44029;52.956;4.772;2023-08-06T07:39:34;100804.63;;;20.29;100.00
55490;BME280;44029;52.956;4.772;2023-08-06T07:41:59;100801.03;;;20.28;100.00
55490;BME280;44029;52.956;4.772;2023-08-06T07:44:27;100807.63;;;20.41;100.00
55490;BME280;44029;52.956;4.772;2023-08-06T07:46:52;100796.47;;;20.33;100.00
55490;BME280;44029;52.956;4.772;2023-08-06T07:49:18;100796.00;;;20.39;100.00
55490;BME280;44029;52.956;4.772;2023-08-06T07:51:43;100799.63;;;19.95;100.00
55490;BME280;44029;52.956;4.772;2023-08-06T07:54:09;100797.09;;;19.84;100.00
55490;BME280;44029;52.956;4.772;2023-08-06T07:56:34;100798.09;;;19.88;100.00
55490;BME280;44029;52.956;4.772;2023-08-06T07:59:01;100797.66;;;19.59;100.00
55490;BME280;44029;52.956;4.772;2023-08-06T08:01:27;100801.25;;;19.73;100.00
55490;BME280;44029;52.956;4.772;2023-08-06T08:03:52;100795.06;;;19.99;100.00
55490;BME280;44029;52.956;4.772;2023-08-06T08:06:18;100793.03;;;20.58;100.00
55490;BME280;44029;52.956;4.772;2023-08-06T08:08:43;100785.91;;;20.21;100.00
55490;BME280;44029;52.956;4.772;2023-08-06T08:11:08;100782.94;;;20.40;100.00
55490;BME280;44029;52.956;4.772;2023-08-06T08:13:34;100779.03;;;20.72;100.00
55490;BME280;44029;52.956;4.772;2023-08-06T08:16:01;100783.81;;;20.49;100.00
55490;BME280;44029;52.956;4.772;2023-08-06T08:18:27;100783.00;;;20.26;100.00
55490;BME280;44029;52.956;4.772;2023-08-06T08:20:52;100781.91;;;20.36;100.00
55490;BME280;44029;52.956;4.772;2023-08-06T08:23:18;100790.78;;;20.69;100.00
55490;BME280;44029;52.956;4.772;2023-08-06T08:25:43;100791.63;;;20.70;100.00
55490;BME280;44029;52.956;4.772;2023-08-06T08:28:08;100788.34;;;20.99;100.00
55490;BME280;44029;52.956;4.772;2023-08-06T08:30:34;100786.19;;;20.96;100.00
55490;BME280;44029;52.956;4.772;2023-08-06T08:32:59;100794.94;;;21.20;100.00
55490;BME280;44029;52.956;4.772;2023-08-06T08:35:25;100792.78;;;21.09;100.00
55490;BME280;44029;52.956;4.772;2023-08-06T08:37:50;100789.59;;;20.84;100.00
55490;BME280;44029;52.956;4.772;2023-08-06T08:40:16;100792.31;;;21.24;100.00
55490;BME280;44029;52.956;4.772;2023-08-06T08:42:42;100792.03;;;21.43;100.00
55490;BME280;44029;52.956;4.772;2023-08-06T08:45:14;100792.94;;;21.78;100.00
55490;BME280;44029;52.956;4.772;2023-08-06T08:47:41;100787.19;;;21.57;100.00
55490;BME280;44029;52.956;4.772;2023-08-06T08:50:08;100784.75;;;21.73;100.00
55490;BME280;44029;52.956;4.772;2023-08-06T08:52:35;100788.50;;;21.60;100.00
55490;BME280;44029;52.956;4.772;2023-08-06T08:55:02;100788.22;;;21.30;100.00
55490;BME280;44029;52.956;4.772;2023-08-06T08:57:27;100786.97;;;21.36;100.00
55490;BME280;44029;52.956;4.772;2023-08-06T08:59:53;100785.91;;;21.15;100.00
55490;BME280;44029;52.956;4.772;2023-08-06T09:02:21;100790.84;;;21.18;100.00
55490;BME280;44029;52.956;4.772;2023-08-06T09:04:47;100797.69;;;21.12;100.00
55490;BME280;44029;52.956;4.772;2023-08-06T09:07:17;100804.88;;;21.04;100.00
55490;BME280;44029;52.956;4.772;2023-08-06T09:09:43;100806.75;;;21.26;100.00
55490;BME280;44029;52.956;4.772;2023-08-06T09:12:14;100795.44;;;21.14;100.00
55490;BME280;44029;52.956;4.772;2023-08-06T09:14:40;100808.19;;;21.15;100.00
55490;BME280;44029;52.956;4.772;2023-08-06T09:17:06;100804.72;;;21.67;100.00
55490;BME280;44029;52.956;4.772;2023-08-06T09:19:32;100798.97;;;21.46;100.00
55490;BME280;44029;52.956;4.772;2023-08-06T09:21:59;100806.72;;;21.66;100.00
55490;BME280;44029;52.956;4.772;2023-08-06T09:24:25;100812.47;;;21.78;100.00
55490;BME280;44029;52.956;4.772;2023-08-06T09:26:51;100815.47;;;21.33;100.00
55490;BME280;44029;52.956;4.772;2023-08-06T09:29:16;100817.38;;;21.64;100.00
55490;BME280;44029;52.956;4.772;2023-08-06T09:31:50;100810.31;;;21.75;100.00
55490;BME280;44029;52.956;4.772;2023-08-06T09:34:22;100808.50;;;21.71;100.00
55490;BME280;44029;52.956;4.772;2023-08-06T09:36:48;100819.03;;;22.00;100.00
55490;BME280;44029;52.956;4.772;2023-08-06T09:39:17;100814.94;;;22.06;100.00
55490;BME280;44029;52.956;4.772;2023-08-06T09:41:44;100823.41;;;21.57;100.00
55490;BME280;44029;52.956;4.772;2023-08-06T09:44:20;100820.69;;;22.01;100.00
55490;BME280;44029;52.956;4.772;2023-08-06T09:46:54;100819.66;;;22.06;100.00
55490;BME280;44029;52.956;4.772;2023-08-06T09:49:25;100820.84;;;22.31;100.00
55490;BME280;44029;52.956;4.772;2023-08-06T09:51:52;100827.72;;;22.07;100.00
55490;BME280;44029;52.956;4.772;2023-08-06T09:54:22;100829.19;;;22.13;100.00
55490;BME280;44029;52.956;4.772;2023-08-06T09:56:48;100831.00;;;22.09;100.00
55490;BME280;44029;52.956;4.772;2023-08-06T09:59:13;100829.06;;;22.27;100.00
55490;BME280;44029;52.956;4.772;2023-08-06T10:01:41;100830.69;;;21.85;100.00
55490;BME280;44029;52.956;4.772;2023-08-06T10:04:06;100837.84;;;21.51;100.00
55490;BME280;44029;52.956;4.772;2023-08-06T10:06:37;100840.03;;;21.89;100.00
55490;BME280;44029;52.956;4.772;2023-08-06T10:09:03;100851.66;;;21.91;100.00
55490;BME280;44029;52.956;4.772;2023-08-06T10:11:29;100853.22;;;21.48;100.00
55490;BME280;44029;52.956;4.772;2023-08-06T10:14:02;100857.91;;;21.79;100.00
55490;BME280;44029;52.956;4.772;2023-08-06T10:16:29;100858.91;;;21.43;100.00
55490;BME280;44029;52.956;4.772;2023-08-06T10:18:56;100861.53;;;21.88;100.00
55490;BME280;44029;52.956;4.772;2023-08-06T10:21:23;100862.81;;;21.73;100.00
55490;BME280;44029;52.956;4.772;2023-08-06T10:23:54;100848.72;;;22.13;100.00
55490;BME280;44029;52.956;4.772;2023-08-06T10:26:20;100856.59;;;21.85;100.00
55490;BME280;44029;52.956;4.772;2023-08-06T10:28:45;100861.78;;;21.52;100.00
55490;BME280;44029;52.956;4.772;2023-08-06T10:31:11;100864.31;;;21.88;100.00
55490;BME280;44029;52.956;4.772;2023-08-06T10:33:44;100861.50;;;22.67;100.00
55490;BME280;44029;52.956;4.772;2023-08-06T10:36:10;100862.72;;;22.31;100.00
55490;BME280;44029;52.956;4.772;2023-08-06T10:38:49;100868.59;;;22.12;100.00
55490;BME280;44029;52.956;4.772;2023-08-06T10:41:18;100870.56;;;22.20;100.00
55490;BME280;44029;52.956;4.772;2023-08-06T10:43:47;100864.31;;;22.14;100.00
55490;BME280;44029;52.956;4.772;2023-08-06T10:46:23;100868.94;;;22.28;100.00
55490;BME280;44029;52.956;4.772;2023-08-06T10:48:48;100864.00;;;22.07;100.00
55490;BME280;44029;52.956;4.772;2023-08-06T10:51:14;100866.09;;;21.93;100.00
55490;BME280;44029;52.956;4.772;2023-08-06T10:53:45;100866.97;;;22.46;100.00
55490;BME280;44029;52.956;4.772;2023-08-06T10:56:15;100874.97;;;22.65;100.00
55490;BME280;44029;52.956;4.772;2023-08-06T10:58:42;100877.00;;;22.29;100.00
55490;BME280;44029;52.956;4.772;2023-08-06T11:01:08;100883.69;;;21.93;100.00
55490;BME280;44029;52.956;4.772;2023-08-06T11:03:33;100881.06;;;21.97;100.00
55490;BME280;44029;52.956;4.772;2023-08-06T11:05:59;100880.88;;;21.85;100.00
55490;BME280;44029;52.956;4.772;2023-08-06T11:08:28;100875.13;;;21.98;100.00
55490;BME280;44029;52.956;4.772;2023-08-06T11:10:54;100872.50;;;21.85;100.00
55490;BME280;44029;52.956;4.772;2023-08-06T11:13:20;100877.63;;;22.09;100.00
55490;BME280;44029;52.956;4.772;2023-08-06T11:15:46;100878.09;;;22.02;100.00
55490;BME280;44029;52.956;4.772;2023-08-06T11:18:12;100874.00;;;22.52;100.00
55490;BME280;44029;52.956;4.772;2023-08-06T11:20:38;100873.63;;;22.71;100.00
55490;BME280;44029;52.956;4.772;2023-08-06T11:23:05;100870.59;;;22.29;100.00
55490;BME280;44029;52.956;4.772;2023-08-06T11:25:30;100878.78;;;22.51;100.00
55490;BME280;44029;52.956;4.772;2023-08-06T11:27:55;100886.47;;;22.02;100.00
55490;BME280;44029;52.956;4.772;2023-08-06T11:30:21;100876.31;;;22.50;100.00
55490;BME280;44029;52.956;4.772;2023-08-06T11:32:47;100883.88;;;22.49;100.00
55490;BME280;44029;52.956;4.772;2023-08-06T11:35:14;100888.13;;;22.55;100.00
55490;BME280;44029;52.956;4.772;2023-08-06T11:37:44;100884.47;;;22.81;100.00
55490;BME280;44029;52.956;4.772;2023-08-06T11:40:11;100883.81;;;22.84;100.00
55490;BME280;44029;52.956;4.772;2023-08-06T11:42:37;100882.69;;;22.68;100.00
55490;BME280;44029;52.956;4.772;2023-08-06T11:45:03;100884.09;;;23.09;100.00
55490;BME280;44029;52.956;4.772;2023-08-06T11:47:30;100879.91;;;22.68;100.00
55490;BME280;44029;52.956;4.772;2023-08-06T11:49:55;100882.22;;;22.66;100.00
55490;BME280;44029;52.956;4.772;2023-08-06T11:52:24;100881.19;;;23.35;100.00
55490;BME280;44029;52.956;4.772;2023-08-06T11:55:06;100892.03;;;23.66;100.00
55490;BME280;44029;52.956;4.772;2023-08-06T11:57:34;100898.84;;;23.18;100.00
55490;BME280;44029;52.956;4.772;2023-08-06T12:00:11;100901.13;;;23.25;100.00
55490;BME280;44029;52.956;4.772;2023-08-06T12:02:39;100900.19;;;23.12;100.00
55490;BME280;44029;52.956;4.772;2023-08-06T12:05:16;100893.44;;;23.13;100.00
55490;BME280;44029;52.956;4.772;2023-08-06T12:07:44;100885.41;;;23.41;100.00
55490;BME280;44029;52.956;4.772;2023-08-06T12:10:10;100880.47;;;23.77;100.00
55490;BME280;44029;52.956;4.772;2023-08-06T12:12:36;100885.97;;;23.34;100.00
55490;BME280;44029;52.956;4.772;2023-08-06T12:15:03;100894.84;;;23.37;100.00
55490;BME280;44029;52.956;4.772;2023-08-06T12:17:29;100893.91;;;23.24;100.00
55490;BME280;44029;52.956;4.772;2023-08-06T12:19:54;100895.81;;;22.85;100.00
55490;BME280;44029;52.956;4.772;2023-08-06T12:22:20;100898.16;;;23.60;100.00
55490;BME280;44029;52.956;4.772;2023-08-06T12:24:46;100912.06;;;23.47;100.00
55490;BME280;44029;52.956;4.772;2023-08-06T12:27:12;100907.09;;;23.06;100.00
55490;BME280;44029;52.956;4.772;2023-08-06T12:29:42;100901.50;;;23.06;100.00
55490;BME280;44029;52.956;4.772;2023-08-06T12:32:11;100912.25;;;23.33;100.00
55490;BME280;44029;52.956;4.772;2023-08-06T12:34:38;100905.78;;;22.94;100.00
55490;BME280;44029;52.956;4.772;2023-08-06T12:37:04;100909.81;;;23.32;100.00
55490;BME280;44029;52.956;4.772;2023-08-06T12:39:29;100907.41;;;23.13;100.00
55490;BME280;44029;52.956;4.772;2023-08-06T12:41:56;100908.38;;;23.17;100.00